Time;durP1;ratioP1;P1;durP2;ratioP2;P2;SDS_P1;SDS_P2;PMS_P1;PMS_P2;Temp;Humidity;BMP_temperature;BMP_pressure;BME280_temperature;BME280_humidity;BME280_pressure;Samples;Min_cycle;Max_cycle;Signal;HPM_P1;HPM_P2
2023/02/12 00:01:34;;;;;;;25.13;9.17;;;;;;;;;;4925416;29;20420;-80
2023/02/12 00:03:59;;;;;;;32.10;9.40;;;;;;;;;;4930964;29;20504;-79
2023/02/12 00:06:25;;;;;;;23.10;9.30;;;;;;;;;;4929625;29;20208;-80
2023/02/12 00:08:54;;;;;;;23.13;9.47;;;;;;;;;;4929050;29;20180;-79
2023/02/12 00:11:21;;;;;;;22.57;8.47;;;;;;;;;;4931031;29;20437;-80
2023/02/12 00:13:46;;;;;;;29.40;9.03;;;;;;;;;;4929823;29;20500;-80
2023/02/12 00:16:13;;;;;;;28.97;8.73;;;;;;;;;;4927280;29;20549;-80
2023/02/12 00:18:38;;;;;;;24.10;8.90;;;;;;;;;;4926714;29;20258;-79
2023/02/12 00:21:04;;;;;;;21.13;8.20;;;;;;;;;;4925276;29;20431;-79
2023/02/12 00:23:29;;;;;;;22.03;8.57;;;;;;;;;;4928569;29;20546;-79
2023/02/12 00:25:54;;;;;;;20.73;8.57;;;;;;;;;;4930049;29;20196;-79
2023/02/12 00:28:20;;;;;;;21.37;8.60;;;;;;;;;;4930388;29;20802;-79
2023/02/12 00:30:45;;;;;;;19.20;8.50;;;;;;;;;;4934417;29;20834;-80
2023/02/12 00:33:10;;;;;;;21.43;8.53;;;;;;;;;;4932329;29;20672;-80
2023/02/12 00:35:36;;;;;;;25.93;9.30;;;;;;;;;;4933783;29;20697;-80
2023/02/12 00:38:03;;;;;;;15.70;7.60;;;;;;;;;;4933348;29;20197;-80
2023/02/12 00:40:29;;;;;;;22.37;9.97;;;;;;;;;;4934727;29;20176;-80
2023/02/12 00:42:54;;;;;;;22.33;8.33;;;;;;;;;;4931937;29;20424;-80
2023/02/12 00:45:21;;;;;;;23.50;8.67;;;;;;;;;;4933213;29;20176;-79
2023/02/12 00:47:47;;;;;;;20.17;8.80;;;;;;;;;;4933660;29;20656;-81
2023/02/12 00:50:15;;;;;;;20.43;9.23;;;;;;;;;;4932852;29;20502;-81
2023/02/12 00:52:40;;;;;;;18.80;8.57;;;;;;;;;;4930531;29;20185;-80
2023/02/12 00:55:06;;;;;;;18.47;8.77;;;;;;;;;;4932310;29;20412;-81
2023/02/12 00:57:32;;;;;;;21.20;9.07;;;;;;;;;;4930797;29;20188;-80
2023/02/12 00:59:59;;;;;;;12.47;7.67;;;;;;;;;;4930564;29;20774;-81
2023/02/12 01:02:25;;;;;;;17.70;7.50;;;;;;;;;;4928909;29;20869;-81
2023/02/12 01:04:52;;;;;;;18.37;8.50;;;;;;;;;;4929324;29;20525;-81
2023/02/12 01:07:20;;;;;;;16.77;8.60;;;;;;;;;;4930512;29;20322;-81
2023/02/12 01:09:45;;;;;;;22.97;8.60;;;;;;;;;;4932163;29;20416;-81
2023/02/12 01:12:10;;;;;;;28.40;9.50;;;;;;;;;;4930839;29;20426;-81
2023/02/12 01:14:36;;;;;;;16.80;7.70;;;;;;;;;;4930038;29;20187;-81
2023/02/12 01:17:03;;;;;;;20.20;8.03;;;;;;;;;;4924472;29;20207;-81
2023/02/12 01:19:29;;;;;;;14.10;7.40;;;;;;;;;;4930419;29;20176;-80
2023/02/12 01:21:54;;;;;;;15.80;8.03;;;;;;;;;;4930792;29;20494;-80
2023/02/12 01:24:19;;;;;;;16.20;7.23;;;;;;;;;;4931044;29;20172;-80
2023/02/12 01:26:44;;;;;;;18.30;8.30;;;;;;;;;;4927385;29;20206;-80
2023/02/12 01:29:12;;;;;;;18.47;8.60;;;;;;;;;;4929639;29;20855;-81
2023/02/12 01:31:38;;;;;;;14.93;7.73;;;;;;;;;;4928999;29;20179;-81
2023/02/12 01:34:04;;;;;;;13.43;7.63;;;;;;;;;;4929221;29;20412;-81
2023/02/12 01:36:30;;;;;;;16.83;9.50;;;;;;;;;;4929469;29;20188;-80
2023/02/12 01:38:56;;;;;;;13.37;7.70;;;;;;;;;;4919872;29;20482;-80
2023/02/12 01:41:26;;;;;;;14.03;8.13;;;;;;;;;;4923842;29;20184;-80
2023/02/12 01:44:08;;;;;;;14.60;7.33;;;;;;;;;;4921224;29;20435;-80
2023/02/12 01:46:33;;;;;;;14.67;8.07;;;;;;;;;;4922900;29;20828;-80
2023/02/12 01:48:59;;;;;;;12.77;8.20;;;;;;;;;;4927748;29;20427;-79
2023/02/12 01:51:27;;;;;;;13.63;7.63;;;;;;;;;;4924643;29;20680;-80
2023/02/12 01:53:54;;;;;;;13.33;8.30;;;;;;;;;;4924769;29;20453;-80
2023/02/12 01:56:20;;;;;;;19.67;8.43;;;;;;;;;;4922121;29;20451;-79
2023/02/12 01:58:49;;;;;;;18.50;8.50;;;;;;;;;;4921099;29;20583;-79
2023/02/12 02:01:17;;;;;;;15.70;8.50;;;;;;;;;;4923498;29;20447;-79
2023/02/12 02:03:44;;;;;;;18.73;8.60;;;;;;;;;;4924077;29;20432;-79
2023/02/12 02:06:18;;;;;;;17.13;8.77;;;;;;;;;;4921426;29;20446;-78
2023/02/12 02:08:44;;;;;;;15.20;8.20;;;;;;;;;;4925443;29;20438;-78
2023/02/12 02:17:14;;;;;;;14.90;9.03;;;;;;;;;;4919170;29;20900;-79
2023/02/12 02:19:58;;;;;;;16.07;8.63;;;;;;;;;;4919178;29;20812;-78
2023/02/12 02:22:29;;;;;;;12.47;8.23;;;;;;;;;;4920491;29;20487;-78
2023/02/12 02:25:19;;;;;;;18.10;8.40;;;;;;;;;;4920062;29;20995;-79
2023/02/12 02:27:44;;;;;;;12.50;7.93;;;;;;;;;;4923022;29;20971;-78
2023/02/12 02:30:15;;;;;;;15.90;8.50;;;;;;;;;;4927072;29;20435;-78
2023/02/12 02:32:44;;;;;;;15.27;8.30;;;;;;;;;;4918298;29;20207;-78
2023/02/12 02:35:12;;;;;;;16.27;9.17;;;;;;;;;;4923852;29;20450;-78
2023/02/12 02:37:40;;;;;;;16.30;9.70;;;;;;;;;;4919158;29;20496;-78
2023/02/12 02:40:18;;;;;;;20.30;10.10;;;;;;;;;;4917936;29;21012;-78
2023/02/12 02:42:53;;;;;;;18.30;9.13;;;;;;;;;;4922372;29;20435;-78
2023/02/12 02:45:25;;;;;;;18.53;9.23;;;;;;;;;;4927304;29;20506;-78
2023/02/12 02:48:10;;;;;;;20.90;9.40;;;;;;;;;;4927264;29;20558;-78
2023/02/12 02:50:38;;;;;;;22.87;10.43;;;;;;;;;;4926493;29;20431;-78
2023/02/12 02:53:16;;;;;;;21.57;10.40;;;;;;;;;;4929206;29;20804;-78
2023/02/12 02:55:46;;;;;;;24.20;9.93;;;;;;;;;;4927822;29;20431;-78
2023/02/12 02:58:15;;;;;;;18.60;10.07;;;;;;;;;;4929642;29;20820;-78
2023/02/12 03:00:44;;;;;;;24.53;10.10;;;;;;;;;;4929184;29;20630;-78
2023/02/12 03:03:18;;;;;;;23.43;9.93;;;;;;;;;;4930650;29;20415;-78
2023/02/12 03:05:48;;;;;;;27.50;10.00;;;;;;;;;;4928216;29;20963;-79
2023/02/12 03:08:16;;;;;;;17.73;9.80;;;;;;;;;;4929617;29;20423;-78
2023/02/12 03:10:48;;;;;;;17.07;9.73;;;;;;;;;;4937778;28;20511;-79
2023/02/12 03:13:17;;;;;;;20.53;10.50;;;;;;;;;;4921450;29;20816;-78
2023/02/12 03:15:54;;;;;;;22.50;9.60;;;;;;;;;;4922254;29;20865;-78
2023/02/12 03:18:22;;;;;;;20.80;9.07;;;;;;;;;;4923576;29;20506;-77
2023/02/12 03:20:51;;;;;;;20.80;9.73;;;;;;;;;;4924625;29;20440;-78
2023/02/12 03:23:23;;;;;;;17.13;8.90;;;;;;;;;;4921211;29;20836;-78
2023/02/12 03:25:58;;;;;;;20.97;8.43;;;;;;;;;;4919116;29;26186;-78
2023/02/12 03:28:27;;;;;;;19.70;9.23;;;;;;;;;;4924026;29;20441;-78
2023/02/12 03:30:52;;;;;;;27.67;11.00;;;;;;;;;;4926026;29;20447;-78
2023/02/12 03:33:23;;;;;;;23.00;8.37;;;;;;;;;;4924923;29;20439;-79
2023/02/12 03:35:51;;;;;;;20.13;8.27;;;;;;;;;;4914440;29;20675;-78
2023/02/12 03:38:26;;;;;;;18.43;8.80;;;;;;;;;;4925795;29;20550;-78
2023/02/12 03:41:07;;;;;;;18.67;7.93;;;;;;;;;;4922861;29;20855;-79
2023/02/12 03:43:42;;;;;;;17.57;8.67;;;;;;;;;;4922970;29;20436;-78
2023/02/12 03:46:16;;;;;;;25.60;9.90;;;;;;;;;;4922895;29;21018;-78
2023/02/12 03:48:41;;;;;;;17.40;8.17;;;;;;;;;;4925848;29;20867;-78
2023/02/12 03:51:24;;;;;;;16.63;8.40;;;;;;;;;;4924913;29;20443;-78
2023/02/12 03:53:49;;;;;;;13.60;8.30;;;;;;;;;;4924452;29;20188;-79
2023/02/12 03:56:18;;;;;;;16.07;8.93;;;;;;;;;;4923598;29;20837;-78
2023/02/12 03:58:44;;;;;;;17.67;8.07;;;;;;;;;;4922777;29;20231;-78
2023/02/12 04:01:12;;;;;;;16.97;8.70;;;;;;;;;;4924224;29;20493;-78
2023/02/12 04:03:38;;;;;;;17.23;9.10;;;;;;;;;;4928841;29;20256;-78
2023/02/12 04:06:03;;;;;;;14.00;8.50;;;;;;;;;;4926379;29;20964;-78
2023/02/12 04:08:31;;;;;;;17.40;8.80;;;;;;;;;;4927324;29;20192;-78
2023/02/12 04:11:02;;;;;;;15.43;8.97;;;;;;;;;;4927929;29;20183;-78
2023/02/12 04:13:48;;;;;;;12.17;8.17;;;;;;;;;;4927449;29;20455;-78
2023/02/12 04:16:13;;;;;;;14.60;8.57;;;;;;;;;;4927510;29;20490;-78
2023/02/12 04:18:38;;;;;;;16.60;8.93;;;;;;;;;;4929739;29;21075;-78
2023/02/12 04:21:12;;;;;;;15.20;8.80;;;;;;;;;;4925278;29;20266;-78
2023/02/12 04:23:37;;;;;;;13.43;8.37;;;;;;;;;;4928140;29;20834;-78
2023/02/12 04:26:23;;;;;;;13.00;8.60;;;;;;;;;;4925786;29;20729;-78
2023/02/12 04:28:57;;;;;;;13.90;8.30;;;;;;;;;;4928203;29;20198;-78
2023/02/12 04:31:22;;;;;;;14.43;8.23;;;;;;;;;;4933645;29;20419;-78
2023/02/12 04:34:06;;;;;;;9.03;7.60;;;;;;;;;;4930949;29;20808;-78
2023/02/12 04:36:37;;;;;;;10.27;8.07;;;;;;;;;;4933615;29;20275;-78
2023/02/12 04:39:05;;;;;;;12.23;8.23;;;;;;;;;;4925536;29;20455;-79
2023/02/12 04:41:30;;;;;;;10.93;8.40;;;;;;;;;;4922927;29;20439;-78
2023/02/12 04:44:11;;;;;;;11.83;7.80;;;;;;;;;;4929246;29;20442;-78
2023/02/12 04:46:37;;;;;;;9.33;7.33;;;;;;;;;;4930327;29;20200;-78
2023/02/12 04:49:04;;;;;;;9.77;8.00;;;;;;;;;;4929835;29;20849;-78
2023/02/12 04:51:29;;;;;;;8.10;7.00;;;;;;;;;;4932405;29;20187;-78
2023/02/12 04:53:55;;;;;;;9.00;7.30;;;;;;;;;;4932180;29;20726;-78
2023/02/12 04:56:22;;;;;;;8.97;6.90;;;;;;;;;;4931111;29;20307;-78
2023/02/12 04:58:50;;;;;;;7.80;6.80;;;;;;;;;;4928520;29;20208;-78
2023/02/12 05:01:17;;;;;;;8.97;7.50;;;;;;;;;;4930486;29;20425;-78
2023/02/12 05:03:45;;;;;;;8.67;7.10;;;;;;;;;;4928910;29;20436;-78
2023/02/12 05:06:10;;;;;;;7.93;7.03;;;;;;;;;;4931690;29;20460;-78
2023/02/12 05:08:36;;;;;;;8.97;7.17;;;;;;;;;;4928434;29;20424;-78
2023/02/12 05:11:05;;;;;;;9.70;7.70;;;;;;;;;;4927562;29;20227;-78
2023/02/12 05:13:31;;;;;;;10.47;8.23;;;;;;;;;;4927717;29;20274;-77
2023/02/12 05:15:56;;;;;;;16.10;8.60;;;;;;;;;;4925918;29;20918;-81
2023/02/12 05:18:21;;;;;;;16.50;10.40;;;;;;;;;;4922107;29;20243;-78
2023/02/12 05:20:53;;;;;;;17.10;11.40;;;;;;;;;;4922345;29;20690;-78
2023/02/12 05:23:19;;;;;;;18.70;11.93;;;;;;;;;;4922811;29;20263;-78
2023/02/12 05:25:44;;;;;;;16.90;11.80;;;;;;;;;;4925794;29;20586;-78
2023/02/12 05:28:09;;;;;;;18.40;12.40;;;;;;;;;;4921901;29;20188;-78
2023/02/12 05:30:37;;;;;;;24.73;11.47;;;;;;;;;;4924991;29;20176;-77
2023/02/12 05:33:04;;;;;;;17.67;12.50;;;;;;;;;;4925824;29;20199;-77
2023/02/12 05:35:29;;;;;;;13.70;10.40;;;;;;;;;;4927371;29;20851;-77
2023/02/12 05:37:55;;;;;;;13.70;9.70;;;;;;;;;;4922326;29;20463;-78
2023/02/12 05:40:20;;;;;;;7.70;6.60;;;;;;;;;;4926487;29;20206;-78
2023/02/12 05:42:45;;;;;;;8.57;6.97;;;;;;;;;;4922575;29;20171;-78
2023/02/12 05:45:13;;;;;;;11.80;4.63;;;;;;;;;;4926838;29;20187;-77
2023/02/12 05:47:38;;;;;;;5.57;4.73;;;;;;;;;;4917933;29;20220;-80
2023/02/12 05:50:04;;;;;;;8.50;5.93;;;;;;;;;;4925131;29;20908;-81
2023/02/12 05:52:32;;;;;;;6.93;5.50;;;;;;;;;;4932852;29;20192;-81
2023/02/12 05:54:57;;;;;;;13.03;8.20;;;;;;;;;;4918450;29;20709;-77
2023/02/12 05:57:25;;;;;;;14.20;8.27;;;;;;;;;;4922435;29;20470;-77
2023/02/12 05:59:50;;;;;;;10.90;7.70;;;;;;;;;;4924273;29;20680;-78
2023/02/12 06:02:18;;;;;;;16.40;8.37;;;;;;;;;;4927231;29;20563;-78
2023/02/12 06:04:43;;;;;;;13.60;8.80;;;;;;;;;;4926379;29;20179;-78
2023/02/12 06:07:08;;;;;;;12.63;8.37;;;;;;;;;;4924179;29;20519;-78
2023/02/12 06:09:34;;;;;;;14.43;8.93;;;;;;;;;;4925787;29;20191;-77
2023/02/12 06:12:01;;;;;;;13.03;8.30;;;;;;;;;;4926334;29;20196;-77
2023/02/12 06:14:27;;;;;;;13.67;9.07;;;;;;;;;;4930484;29;20254;-78
2023/02/12 06:16:54;;;;;;;13.93;8.97;;;;;;;;;;4926256;29;20479;-78
2023/02/12 06:19:23;;;;;;;12.03;7.93;;;;;;;;;;4922911;29;20290;-77
2023/02/12 06:21:51;;;;;;;13.07;8.53;;;;;;;;;;4925713;29;20432;-77
2023/02/12 06:24:16;;;;;;;10.57;7.80;;;;;;;;;;4926909;29;20467;-78
2023/02/12 06:26:41;;;;;;;9.73;7.50;;;;;;;;;;4916514;29;20558;-77
2023/02/12 06:29:07;;;;;;;10.17;7.13;;;;;;;;;;4923511;29;20270;-78
2023/02/12 06:31:33;;;;;;;9.70;6.87;;;;;;;;;;4920094;29;20184;-77
2023/02/12 06:34:05;;;;;;;8.53;5.17;;;;;;;;;;4921588;29;20239;-77
2023/02/12 06:36:31;;;;;;;5.83;3.80;;;;;;;;;;4920646;29;20459;-78
2023/02/12 06:38:56;;;;;;;5.03;3.63;;;;;;;;;;4926174;29;20452;-77
2023/02/12 06:41:24;;;;;;;4.47;3.53;;;;;;;;;;4922808;29;20611;-77
2023/02/12 06:43:49;;;;;;;5.90;4.27;;;;;;;;;;4924969;29;20677;-77
2023/02/12 06:46:15;;;;;;;6.03;4.07;;;;;;;;;;4928843;29;20488;-78
2023/02/12 06:48:41;;;;;;;6.27;4.57;;;;;;;;;;4928185;29;20190;-77
2023/02/12 06:51:08;;;;;;;5.80;4.30;;;;;;;;;;4925384;29;20238;-77
2023/02/12 06:53:34;;;;;;;6.17;5.20;;;;;;;;;;4925767;29;20440;-77
2023/02/12 06:56:03;;;;;;;7.10;4.97;;;;;;;;;;4929248;29;20511;-77
2023/02/12 06:58:29;;;;;;;8.50;5.50;;;;;;;;;;4924288;29;20251;-77
2023/02/12 07:00:54;;;;;;;6.70;5.07;;;;;;;;;;4923954;29;20439;-77
2023/02/12 07:03:19;;;;;;;7.13;5.80;;;;;;;;;;4926584;29;20191;-77
2023/02/12 07:05:49;;;;;;;5.43;3.20;;;;;;;;;;4924363;29;20215;-77
2023/02/12 07:08:14;;;;;;;4.33;3.93;;;;;;;;;;4927783;29;20716;-77
2023/02/12 07:10:46;;;;;;;5.20;3.93;;;;;;;;;;4930039;29;20423;-77
2023/02/12 07:13:12;;;;;;;3.93;3.33;;;;;;;;;;4923803;29;20568;-77
2023/02/12 07:15:39;;;;;;;4.40;3.80;;;;;;;;;;4923249;29;20498;-76
2023/02/12 07:18:07;;;;;;;7.40;4.10;;;;;;;;;;4926409;29;20360;-77
2023/02/12 07:20:32;;;;;;;6.20;3.50;;;;;;;;;;4919319;29;20433;-77
2023/02/12 07:23:00;;;;;;;5.50;3.77;;;;;;;;;;4920345;29;20435;-77
2023/02/12 07:25:25;;;;;;;7.43;4.20;;;;;;;;;;4921645;29;20196;-77
2023/02/12 07:27:50;;;;;;;8.00;4.10;;;;;;;;;;4923802;29;20438;-77
2023/02/12 07:30:16;;;;;;;5.03;4.20;;;;;;;;;;4924361;29;20215;-77
2023/02/12 07:32:41;;;;;;;10.00;3.53;;;;;;;;;;4926664;29;20184;-77
2023/02/12 07:35:06;;;;;;;4.90;3.67;;;;;;;;;;4929572;29;20191;-77
2023/02/12 07:37:32;;;;;;;3.60;2.70;;;;;;;;;;4927988;29;20248;-76
2023/02/12 07:39:57;;;;;;;5.37;4.03;;;;;;;;;;4930293;29;20876;-77
2023/02/12 07:42:25;;;;;;;4.20;3.63;;;;;;;;;;4920330;29;20275;-77
2023/02/12 07:44:55;;;;;;;7.60;3.60;;;;;;;;;;4927832;29;20176;-77
2023/02/12 07:47:23;;;;;;;4.43;3.77;;;;;;;;;;4928468;29;20458;-77
2023/02/12 07:49:48;;;;;;;4.23;3.53;;;;;;;;;;4929334;29;20467;-77
2023/02/12 07:52:13;;;;;;;4.30;3.67;;;;;;;;;;4926993;29;20535;-77
2023/02/12 07:54:41;;;;;;;5.20;3.70;;;;;;;;;;4929847;29;20192;-77
2023/02/12 07:57:06;;;;;;;5.20;3.93;;;;;;;;;;4926381;29;20203;-76
2023/02/12 07:59:32;;;;;;;4.53;3.70;;;;;;;;;;4924155;29;20435;-78
2023/02/12 08:01:59;;;;;;;4.07;3.43;;;;;;;;;;4925024;29;20202;-78
2023/02/12 08:04:27;;;;;;;5.17;3.67;;;;;;;;;;4925068;29;20171;-77
2023/02/12 08:06:53;;;;;;;5.17;4.60;;;;;;;;;;4924186;29;20448;-77
2023/02/12 08:09:20;;;;;;;6.03;3.80;;;;;;;;;;4929503;29;20445;-77
2023/02/12 08:11:48;;;;;;;9.37;4.57;;;;;;;;;;4927769;29;20431;-78
2023/02/12 08:14:15;;;;;;;7.07;4.23;;;;;;;;;;4925679;29;20815;-77
2023/02/12 08:16:40;;;;;;;6.00;5.20;;;;;;;;;;4929974;29;20477;-77
2023/02/12 08:19:08;;;;;;;6.40;5.20;;;;;;;;;;4926961;29;20471;-77
2023/02/12 08:21:34;;;;;;;6.37;5.60;;;;;;;;;;4922372;29;20238;-77
2023/02/12 08:24:02;;;;;;;4.90;4.30;;;;;;;;;;4927484;29;20436;-77
2023/02/12 08:26:31;;;;;;;4.80;4.27;;;;;;;;;;4927176;29;20225;-77
2023/02/12 08:29:03;;;;;;;5.30;4.80;;;;;;;;;;4927060;29;20523;-77
2023/02/12 08:31:30;;;;;;;5.83;5.23;;;;;;;;;;4914705;29;20439;-77
2023/02/12 08:33:56;;;;;;;6.13;5.27;;;;;;;;;;4931601;29;20510;-77
2023/02/12 08:36:22;;;;;;;6.47;4.73;;;;;;;;;;4916865;29;20546;-77
2023/02/12 08:38:48;;;;;;;7.67;4.70;;;;;;;;;;4925523;29;20295;-77
2023/02/12 08:41:21;;;;;;;6.37;5.00;;;;;;;;;;4922262;29;20522;-77
2023/02/12 08:43:48;;;;;;;6.23;5.27;;;;;;;;;;4922958;29;20190;-78
2023/02/12 08:46:17;;;;;;;5.70;4.90;;;;;;;;;;4924398;29;20466;-77
2023/02/12 08:48:45;;;;;;;7.40;5.97;;;;;;;;;;4920813;29;20927;-77
2023/02/12 08:51:15;;;;;;;9.43;6.80;;;;;;;;;;4920661;29;20450;-77
2023/02/12 08:53:44;;;;;;;5.33;4.83;;;;;;;;;;4928001;29;20423;-78
2023/02/12 08:56:10;;;;;;;5.83;5.23;;;;;;;;;;4928708;29;20439;-77
2023/02/12 08:58:36;;;;;;;6.10;4.63;;;;;;;;;;4925668;29;20506;-77
2023/02/12 09:01:05;;;;;;;5.17;4.67;;;;;;;;;;4926842;29;20960;-78
2023/02/12 09:03:31;;;;;;;5.43;4.47;;;;;;;;;;4928238;29;20176;-77
2023/02/12 09:06:03;;;;;;;4.27;3.63;;;;;;;;;;4919931;29;20824;-78
2023/02/12 09:08:29;;;;;;;4.50;4.10;;;;;;;;;;4919594;29;20188;-78
2023/02/12 09:10:54;;;;;;;4.37;3.87;;;;;;;;;;4919039;29;20462;-77
2023/02/12 09:13:19;;;;;;;4.50;3.73;;;;;;;;;;4921614;29;20211;-76
2023/02/12 09:15:45;;;;;;;5.00;3.90;;;;;;;;;;4919309;29;20216;-78
2023/02/12 09:18:10;;;;;;;5.20;4.70;;;;;;;;;;4921512;29;20247;-78
2023/02/12 09:20:38;;;;;;;4.53;4.10;;;;;;;;;;4919631;29;20247;-78
2023/02/12 09:23:06;;;;;;;4.87;4.20;;;;;;;;;;4928574;29;20179;-77
2023/02/12 09:25:33;;;;;;;4.87;3.93;;;;;;;;;;4926843;29;20451;-78
2023/02/12 09:28:01;;;;;;;6.60;5.30;;;;;;;;;;4931468;29;20428;-78
2023/02/12 09:30:29;;;;;;;6.40;5.60;;;;;;;;;;4916758;29;20550;-78
2023/02/12 09:32:57;;;;;;;6.57;5.87;;;;;;;;;;4919268;29;20487;-77
2023/02/12 09:35:22;;;;;;;8.30;6.03;;;;;;;;;;4916752;29;21155;-76
2023/02/12 09:37:48;;;;;;;5.93;5.33;;;;;;;;;;4921105;29;20670;-77
2023/02/12 09:40:28;;;;;;;7.00;5.73;;;;;;;;;;4926288;29;20536;-77
2023/02/12 09:42:53;;;;;;;6.17;4.97;;;;;;;;;;4915803;29;20192;-77
2023/02/12 09:45:20;;;;;;;7.50;5.97;;;;;;;;;;4913158;29;20436;-77
2023/02/12 09:47:45;;;;;;;5.97;5.03;;;;;;;;;;4923274;29;20239;-77
2023/02/12 09:50:11;;;;;;;6.97;5.53;;;;;;;;;;4924348;29;20435;-76
2023/02/12 09:52:36;;;;;;;6.47;5.40;;;;;;;;;;4923757;29;20258;-76
2023/02/12 09:55:02;;;;;;;7.00;5.60;;;;;;;;;;4924283;29;20183;-76
2023/02/12 09:57:33;;;;;;;7.00;5.80;;;;;;;;;;4925126;29;20216;-76
2023/02/12 10:00:00;;;;;;;6.50;5.80;;;;;;;;;;4922755;29;20191;-76
2023/02/12 10:02:26;;;;;;;6.80;5.80;;;;;;;;;;4923194;29;21312;-77
2023/02/12 10:04:52;;;;;;;7.50;5.37;;;;;;;;;;4923235;29;20463;-75
2023/02/12 10:07:22;;;;;;;7.50;6.23;;;;;;;;;;4911260;29;20936;-76
2023/02/12 10:09:54;;;;;;;7.20;5.57;;;;;;;;;;4924265;28;20440;-77
2023/02/12 10:12:34;;;;;;;8.00;5.60;;;;;;;;;;4928606;29;20443;-79
2023/02/12 10:15:02;;;;;;;8.00;5.20;;;;;;;;;;4921022;29;20445;-77
2023/02/12 10:17:27;;;;;;;6.63;5.87;;;;;;;;;;4925136;29;20478;-76
2023/02/12 10:19:59;;;;;;;10.60;8.33;;;;;;;;;;4925637;29;20917;-75
2023/02/12 10:22:28;;;;;;;10.77;8.27;;;;;;;;;;4929471;29;20176;-76
2023/02/12 10:25:07;;;;;;;9.20;6.03;;;;;;;;;;4929555;29;20516;-76
2023/02/12 10:27:36;;;;;;;7.37;5.90;;;;;;;;;;4930115;29;20415;-76
2023/02/12 10:30:03;;;;;;;7.13;5.73;;;;;;;;;;4931029;29;20458;-77
2023/02/12 10:32:31;;;;;;;8.40;6.30;;;;;;;;;;4931421;29;20431;-77
2023/02/12 10:34:58;;;;;;;7.93;6.40;;;;;;;;;;4926928;29;20443;-77
2023/02/12 10:37:38;;;;;;;8.50;6.30;;;;;;;;;;4929683;29;20474;-77
2023/02/12 10:40:12;;;;;;;8.47;6.23;;;;;;;;;;4920855;29;20439;-76
2023/02/12 10:42:42;;;;;;;11.13;5.97;;;;;;;;;;4928365;29;20427;-77
2023/02/12 10:45:12;;;;;;;7.87;6.90;;;;;;;;;;4929366;29;20428;-76
2023/02/12 10:47:38;;;;;;;7.27;6.20;;;;;;;;;;4929388;29;20427;-78
2023/02/12 10:50:15;;;;;;;8.07;6.53;;;;;;;;;;4929790;29;20984;-77
2023/02/12 10:52:44;;;;;;;8.47;6.80;;;;;;;;;;4930427;29;20183;-79
2023/02/12 10:55:32;;;;;;;9.53;7.17;;;;;;;;;;4924225;29;20419;-77
2023/02/12 10:57:58;;;;;;;7.37;6.57;;;;;;;;;;4921241;29;20467;-77
2023/02/12 11:00:27;;;;;;;9.07;6.60;;;;;;;;;;4927375;29;20528;-77
2023/02/12 11:03:03;;;;;;;7.70;6.77;;;;;;;;;;4928298;29;20968;-77
2023/02/12 11:05:29;;;;;;;9.03;7.10;;;;;;;;;;4928753;29;20435;-77
2023/02/12 11:07:56;;;;;;;9.17;7.47;;;;;;;;;;4930664;29;20428;-80
2023/02/12 11:10:47;;;;;;;9.30;7.90;;;;;;;;;;4929355;29;20734;-79
2023/02/12 11:13:23;;;;;;;10.50;7.90;;;;;;;;;;4927619;29;20467;-79
2023/02/12 11:15:49;;;;;;;11.10;8.10;;;;;;;;;;4919823;29;20463;-78
2023/02/12 11:18:22;;;;;;;11.53;9.00;;;;;;;;;;4926202;29;20471;-79
2023/02/12 11:20:48;;;;;;;14.40;9.83;;;;;;;;;;4926078;29;20176;-77
2023/02/12 11:23:30;;;;;;;12.50;10.97;;;;;;;;;;4929350;29;20420;-77
2023/02/12 11:25:56;;;;;;;13.63;9.40;;;;;;;;;;4929954;29;20475;-79
2023/02/12 11:28:21;;;;;;;12.90;10.73;;;;;;;;;;4930164;29;20983;-78
2023/02/12 11:30:54;;;;;;;13.47;11.10;;;;;;;;;;4929468;29;20574;-79
2023/02/12 11:33:28;;;;;;;17.50;11.70;;;;;;;;;;4929210;29;20187;-77
2023/02/12 11:35:57;;;;;;;18.50;12.93;;;;;;;;;;4929037;29;20932;-79
2023/02/12 11:38:25;;;;;;;14.80;11.20;;;;;;;;;;4925414;29;20533;-78
2023/02/12 11:40:51;;;;;;;16.53;10.77;;;;;;;;;;4929418;29;20408;-78
2023/02/12 11:43:18;;;;;;;15.70;11.20;;;;;;;;;;4929088;29;20416;-79
2023/02/12 11:45:46;;;;;;;15.30;11.73;;;;;;;;;;4930081;29;20487;-77
2023/02/12 11:48:32;;;;;;;14.97;11.33;;;;;;;;;;4928970;29;20479;-77
2023/02/12 11:50:59;;;;;;;15.53;11.43;;;;;;;;;;4929571;29;20943;-77
2023/02/12 11:53:27;;;;;;;13.47;10.33;;;;;;;;;;4927641;29;20790;-77
2023/02/12 11:55:54;;;;;;;16.63;10.93;;;;;;;;;;4929162;29;20460;-77
2023/02/12 11:58:21;;;;;;;18.20;10.57;;;;;;;;;;4925906;29;20499;-78
2023/02/12 12:00:56;;;;;;;16.20;12.87;;;;;;;;;;4926244;29;20436;-77
2023/02/12 12:03:31;;;;;;;18.43;12.43;;;;;;;;;;4924366;29;20672;-77
2023/02/12 12:06:00;;;;;;;16.67;11.97;;;;;;;;;;4930507;29;20423;-77
2023/02/12 12:08:28;;;;;;;14.80;11.53;;;;;;;;;;4926398;29;20403;-77
2023/02/12 12:11:12;;;;;;;16.17;11.90;;;;;;;;;;4929685;29;20411;-77
2023/02/12 12:13:48;;;;;;;14.70;10.63;;;;;;;;;;4930019;29;20422;-81
2023/02/12 12:22:12;;;;;;;16.00;11.43;;;;;;;;;;4933573;29;20398;-77
2023/02/12 12:24:41;;;;;;;20.60;12.73;;;;;;;;;;4925357;29;20490;-80
2023/02/12 12:27:23;;;;;;;16.73;12.30;;;;;;;;;;4929650;29;20624;-79
2023/02/12 12:29:59;;;;;;;18.50;12.33;;;;;;;;;;4930520;29;20423;-80
2023/02/12 12:32:25;;;;;;;19.77;12.90;;;;;;;;;;4928222;29;20411;-78
2023/02/12 12:34:51;;;;;;;19.27;13.80;;;;;;;;;;4931087;29;20427;-77
2023/02/12 12:37:26;;;;;;;18.47;12.30;;;;;;;;;;4931688;29;20208;-77
2023/02/12 12:40:09;;;;;;;20.20;13.27;;;;;;;;;;4932159;29;20173;-77
2023/02/12 12:42:43;;;;;;;14.67;11.63;;;;;;;;;;4930519;29;20546;-78
2023/02/12 12:45:30;;;;;;;18.00;12.20;;;;;;;;;;4931502;29;20419;-84
2023/02/12 12:48:00;;;;;;;18.77;12.60;;;;;;;;;;4931166;29;20442;-80
2023/02/12 12:50:34;;;;;;;17.57;12.77;;;;;;;;;;4932325;29;20514;-83
2023/02/12 12:53:09;;;;;;;16.33;11.73;;;;;;;;;;4928966;29;20454;-82
2023/02/12 12:55:34;;;;;;;14.40;10.03;;;;;;;;;;4930980;29;20443;-85
2023/02/12 12:58:06;;;;;;;17.50;11.80;;;;;;;;;;4930871;29;20463;-78
2023/02/12 13:00:47;;;;;;;18.97;12.70;;;;;;;;;;4931170;29;20228;-77
2023/02/12 13:03:12;;;;;;;14.43;11.13;;;;;;;;;;4908124;29;20439;-80
2023/02/12 13:05:48;;;;;;;16.70;11.33;;;;;;;;;;4910754;29;20521;-80
2023/02/12 13:08:29;;;;;;;14.40;9.90;;;;;;;;;;4908508;29;20196;-80
2023/02/12 13:10:54;;;;;;;14.93;10.23;;;;;;;;;;4921710;29;20579;-84
2023/02/12 13:13:32;;;;;;;15.50;10.30;;;;;;;;;;4917654;29;20865;-84
2023/02/12 13:16:00;;;;;;;18.70;10.70;;;;;;;;;;4916775;29;20307;-82
2023/02/12 13:18:44;;;;;;;15.77;10.03;;;;;;;;;;4920367;29;20470;-83
2023/02/12 13:21:29;;;;;;;14.00;9.70;;;;;;;;;;4920215;29;20461;-79
2023/02/12 13:24:00;;;;;;;14.60;9.93;;;;;;;;;;4915726;29;20503;-84
2023/02/12 13:26:47;;;;;;;13.80;10.37;;;;;;;;;;4913563;29;20634;-83
2023/02/12 13:29:16;;;;;;;14.20;10.90;;;;;;;;;;4913188;29;20443;-80
2023/02/12 13:31:46;;;;;;;13.73;10.70;;;;;;;;;;4912354;29;20451;-77
2023/02/12 13:34:13;;;;;;;12.30;9.40;;;;;;;;;;4908162;29;20451;-84
2023/02/12 13:36:40;;;;;;;17.30;10.90;;;;;;;;;;4915820;29;20505;-78
2023/02/12 13:39:05;;;;;;;15.30;11.00;;;;;;;;;;4915767;29;20482;-78
2023/02/12 13:41:31;;;;;;;13.57;9.80;;;;;;;;;;4923054;29;20439;-77
2023/02/12 13:44:15;;;;;;;17.30;10.20;;;;;;;;;;4921444;29;20202;-78
2023/02/12 13:46:49;;;;;;;15.60;10.23;;;;;;;;;;4921555;29;20582;-79
2023/02/12 13:49:25;;;;;;;13.80;10.37;;;;;;;;;;4922253;29;20438;-82
2023/02/12 13:52:10;;;;;;;13.60;9.77;;;;;;;;;;4920226;29;20824;-80
2023/02/12 13:54:39;;;;;;;12.50;9.33;;;;;;;;;;4922152;29;20503;-79
2023/02/12 13:57:10;;;;;;;19.13;12.77;;;;;;;;;;4918228;29;20463;-78
2023/02/12 13:59:35;;;;;;;19.73;12.80;;;;;;;;;;4928277;28;20866;-80
2023/02/12 14:02:03;;;;;;;11.73;8.63;;;;;;;;;;4921743;29;20436;-77
2023/02/12 14:04:31;;;;;;;15.93;10.90;;;;;;;;;;4911753;29;20234;-82
2023/02/12 14:06:58;;;;;;;17.53;12.10;;;;;;;;;;4915260;29;20949;-77
2023/02/12 14:09:28;;;;;;;19.00;11.70;;;;;;;;;;4909965;29;20465;-77
2023/02/12 14:11:54;;;;;;;16.00;9.57;;;;;;;;;;4923409;29;20472;-76
2023/02/12 14:14:28;;;;;;;14.77;8.60;;;;;;;;;;4925413;29;20925;-79
2023/02/12 14:16:53;;;;;;;11.27;7.00;;;;;;;;;;4914526;29;20238;-79
2023/02/12 14:19:40;;;;;;;8.93;5.30;;;;;;;;;;4923119;29;20997;-79
2023/02/12 14:22:09;;;;;;;7.23;4.23;;;;;;;;;;4904638;29;20391;-77
2023/02/12 14:24:35;;;;;;;5.57;3.70;;;;;;;;;;4920138;29;20463;-80
2023/02/12 14:27:01;;;;;;;4.83;2.90;;;;;;;;;;4922809;29;20977;-79
2023/02/12 14:29:29;;;;;;;5.07;2.67;;;;;;;;;;4927318;29;20258;-80
2023/02/12 14:31:55;;;;;;;3.40;2.20;;;;;;;;;;4925772;28;21012;-78
2023/02/12 14:34:20;;;;;;;6.70;2.90;;;;;;;;;;4928652;29;20515;-80
2023/02/12 14:36:47;;;;;;;4.33;2.43;;;;;;;;;;4926371;29;20677;-81
2023/02/12 14:39:27;;;;;;;3.40;2.30;;;;;;;;;;4925719;29;20696;-81
2023/02/12 14:41:54;;;;;;;3.70;2.80;;;;;;;;;;4916696;29;20439;-79
2023/02/12 14:44:21;;;;;;;3.87;2.70;;;;;;;;;;4928805;29;20801;-80
2023/02/12 14:46:51;;;;;;;3.70;2.70;;;;;;;;;;4914689;29;20836;-78
2023/02/12 14:49:26;;;;;;;4.00;2.30;;;;;;;;;;4927943;29;20432;-77
2023/02/12 14:51:52;;;;;;;2.63;2.20;;;;;;;;;;4929194;29;20978;-78
2023/02/12 14:54:25;;;;;;;3.13;2.57;;;;;;;;;;4928621;29;20455;-80
2023/02/12 14:56:51;;;;;;;2.83;1.93;;;;;;;;;;4928495;29;20242;-78